Anthony, Texas
Current Conditions -  °F | °C
As of 7:58 AM on Monday 22 Dec 2014 (Local Time) from KBIF Reporting Station
Scattered Clouds Scattered Clouds  
Wind Chill: 42°   Ceiling: Unl
Heat Index: 47°   Visibility: 10mi
Dew Point: 31°   Wind: 10mph
Humidity: 53%   Direction: 130°SE
Pressure: 29.91"   Gusts: NA
Location:  32°N, 106.61°W
Report Text: KBIF 221458Z 13009KT 10SM SCT250 08/M01 A2991 RMK AO2A SLP099 T00821008 50006 $
Loading
Personal Weather Stations






























Interactive Weather Map New forecast layout! Learn more

10-Day Weather Forecast

Advertisements
Track Severe Weather on mobile